sensor_id;sensor_type;location;lat;lon;timestamp;P1;durP1;ratioP1;P2;durP2;ratioP2
41043;SDS011;51680;49.806;18.774;2023-06-14T00:01:42;8.35;;;5.30;;
41043;SDS011;51680;49.806;18.774;2023-06-14T00:04:46;9.82;;;5.38;;
41043;SDS011;51680;49.806;18.774;2023-06-14T00:07:49;9.05;;;5.00;;
41043;SDS011;51680;49.806;18.774;2023-06-14T00:10:53;8.15;;;5.40;;
41043;SDS011;51680;49.806;18.774;2023-06-14T00:13:55;11.55;;;5.50;;
41043;SDS011;51680;49.806;18.774;2023-06-14T00:16:57;10.23;;;6.07;;
41043;SDS011;51680;49.806;18.774;2023-06-14T00:19:59;11.77;;;6.20;;
41043;SDS011;51680;49.806;18.774;2023-06-14T00:23:23;7.07;;;4.82;;
41043;SDS011;51680;49.806;18.774;2023-06-14T00:26:25;9.50;;;5.63;;
41043;SDS011;51680;49.806;18.774;2023-06-14T00:29:27;11.95;;;6.30;;
41043;SDS011;51680;49.806;18.774;2023-06-14T00:32:30;9.00;;;5.13;;
41043;SDS011;51680;49.806;18.774;2023-06-14T00:35:32;10.50;;;6.05;;
41043;SDS011;51680;49.806;18.774;2023-06-14T00:38:35;9.50;;;5.40;;
41043;SDS011;51680;49.806;18.774;2023-06-14T00:41:37;9.57;;;5.67;;
41043;SDS011;51680;49.806;18.774;2023-06-14T00:44:39;9.07;;;5.32;;
41043;SDS011;51680;49.806;18.774;2023-06-14T00:47:41;11.65;;;6.10;;
41043;SDS011;51680;49.806;18.774;2023-06-14T00:50:44;9.07;;;5.93;;
41043;SDS011;51680;49.806;18.774;2023-06-14T00:53:51;12.38;;;6.15;;
41043;SDS011;51680;49.806;18.774;2023-06-14T00:56:53;10.50;;;5.90;;
41043;SDS011;51680;49.806;18.774;2023-06-14T00:59:55;12.00;;;6.50;;
41043;SDS011;51680;49.806;18.774;2023-06-14T01:02:57;10.57;;;6.65;;
41043;SDS011;51680;49.806;18.774;2023-06-14T01:05:59;12.55;;;7.13;;
41043;SDS011;51680;49.806;18.774;2023-06-14T01:09:14;10.93;;;7.03;;
41043;SDS011;51680;49.806;18.774;2023-06-14T01:12:21;14.07;;;6.68;;
41043;SDS011;51680;49.806;18.774;2023-06-14T01:15:29;13.35;;;7.72;;
41043;SDS011;51680;49.806;18.774;2023-06-14T01:18:32;14.30;;;7.82;;
41043;SDS011;51680;49.806;18.774;2023-06-14T01:21:36;14.45;;;9.07;;
41043;SDS011;51680;49.806;18.774;2023-06-14T01:24:43;19.17;;;9.60;;
41043;SDS011;51680;49.806;18.774;2023-06-14T01:30:50;25.50;;;10.50;;
41043;SDS011;51680;49.806;18.774;2023-06-14T01:33:53;56.10;;;9.45;;
41043;SDS011;51680;49.806;18.774;2023-06-14T01:36:57;177.20;;;13.50;;
41043;SDS011;51680;49.806;18.774;2023-06-14T01:40:06;123.50;;;12.50;;
41043;SDS011;51680;49.806;18.774;2023-06-14T01:43:09;183.00;;;14.07;;
41043;SDS011;51680;49.806;18.774;2023-06-14T01:46:13;215.37;;;15.70;;
41043;SDS011;51680;49.806;18.774;2023-06-14T01:49:16;182.00;;;13.48;;
41043;SDS011;51680;49.806;18.774;2023-06-14T01:52:18;161.00;;;14.65;;
41043;SDS011;51680;49.806;18.774;2023-06-14T01:55:21;196.73;;;14.15;;
41043;SDS011;51680;49.806;18.774;2023-06-14T01:58:24;81.97;;;13.35;;
41043;SDS011;51680;49.806;18.774;2023-06-14T02:01:26;167.05;;;13.68;;
41043;SDS011;51680;49.806;18.774;2023-06-14T02:04:28;68.05;;;11.55;;
41043;SDS011;51680;49.806;18.774;2023-06-14T02:07:30;28.58;;;12.98;;
41043;SDS011;51680;49.806;18.774;2023-06-14T02:10:33;48.20;;;11.88;;
41043;SDS011;51680;49.806;18.774;2023-06-14T02:13:34;43.17;;;12.20;;
41043;SDS011;51680;49.806;18.774;2023-06-14T02:16:36;39.97;;;12.32;;
41043;SDS011;51680;49.806;18.774;2023-06-14T02:19:46;26.92;;;11.82;;
41043;SDS011;51680;49.806;18.774;2023-06-14T02:22:48;61.83;;;14.07;;
41043;SDS011;51680;49.806;18.774;2023-06-14T02:25:51;33.38;;;14.35;;
41043;SDS011;51680;49.806;18.774;2023-06-14T02:28:53;127.00;;;14.77;;
41043;SDS011;51680;49.806;18.774;2023-06-14T02:31:54;105.78;;;14.80;;
41043;SDS011;51680;49.806;18.774;2023-06-14T02:34:56;114.75;;;15.48;;
41043;SDS011;51680;49.806;18.774;2023-06-14T02:37:58;59.28;;;14.55;;
41043;SDS011;51680;49.806;18.774;2023-06-14T02:41:02;90.65;;;15.98;;
41043;SDS011;51680;49.806;18.774;2023-06-14T02:44:04;240.77;;;15.90;;
41043;SDS011;51680;49.806;18.774;2023-06-14T02:47:06;47.03;;;14.52;;
41043;SDS011;51680;49.806;18.774;2023-06-14T02:50:08;257.45;;;17.58;;
41043;SDS011;51680;49.806;18.774;2023-06-14T02:53:11;129.98;;;16.05;;
41043;SDS011;51680;49.806;18.774;2023-06-14T02:56:14;295.40;;;17.52;;
41043;SDS011;51680;49.806;18.774;2023-06-14T02:59:18;172.63;;;14.10;;
41043;SDS011;51680;49.806;18.774;2023-06-14T03:05:23;171.75;;;15.65;;
41043;SDS011;51680;49.806;18.774;2023-06-14T03:08:25;201.18;;;15.35;;
41043;SDS011;51680;49.806;18.774;2023-06-14T03:11:33;64.78;;;15.20;;
41043;SDS011;51680;49.806;18.774;2023-06-14T03:14:35;110.93;;;14.52;;
41043;SDS011;51680;49.806;18.774;2023-06-14T03:17:37;90.53;;;15.40;;
41043;SDS011;51680;49.806;18.774;2023-06-14T03:20:40;166.77;;;15.73;;
41043;SDS011;51680;49.806;18.774;2023-06-14T03:23:42;63.78;;;14.77;;
41043;SDS011;51680;49.806;18.774;2023-06-14T03:26:46;84.85;;;15.95;;
41043;SDS011;51680;49.806;18.774;2023-06-14T03:29:49;21.30;;;12.82;;
41043;SDS011;51680;49.806;18.774;2023-06-14T03:32:51;18.08;;;10.63;;
41043;SDS011;51680;49.806;18.774;2023-06-14T03:35:55;16.70;;;10.93;;
41043;SDS011;51680;49.806;18.774;2023-06-14T03:38:58;18.60;;;11.48;;
41043;SDS011;51680;49.806;18.774;2023-06-14T03:42:01;18.55;;;9.90;;
41043;SDS011;51680;49.806;18.774;2023-06-14T03:45:03;12.93;;;8.65;;
41043;SDS011;51680;49.806;18.774;2023-06-14T03:48:06;20.38;;;10.43;;
41043;SDS011;51680;49.806;18.774;2023-06-14T03:51:09;18.07;;;9.77;;
41043;SDS011;51680;49.806;18.774;2023-06-14T03:54:12;15.53;;;9.80;;
41043;SDS011;51680;49.806;18.774;2023-06-14T03:57:16;16.60;;;9.77;;
41043;SDS011;51680;49.806;18.774;2023-06-14T04:03:20;16.08;;;10.02;;
41043;SDS011;51680;49.806;18.774;2023-06-14T04:06:30;15.38;;;9.25;;
41043;SDS011;51680;49.806;18.774;2023-06-14T04:09:33;15.43;;;9.90;;
41043;SDS011;51680;49.806;18.774;2023-06-14T04:12:36;16.98;;;10.23;;
41043;SDS011;51680;49.806;18.774;2023-06-14T04:15:38;16.23;;;9.27;;
41043;SDS011;51680;49.806;18.774;2023-06-14T04:18:42;17.85;;;10.18;;
41043;SDS011;51680;49.806;18.774;2023-06-14T04:21:44;18.83;;;11.20;;
41043;SDS011;51680;49.806;18.774;2023-06-14T04:24:47;20.38;;;11.18;;
41043;SDS011;51680;49.806;18.774;2023-06-14T04:27:51;19.92;;;11.40;;
41043;SDS011;51680;49.806;18.774;2023-06-14T04:30:54;14.85;;;8.40;;
41043;SDS011;51680;49.806;18.774;2023-06-14T04:33:55;18.35;;;9.15;;
41043;SDS011;51680;49.806;18.774;2023-06-14T04:36:57;17.92;;;10.55;;
41043;SDS011;51680;49.806;18.774;2023-06-14T04:40:07;18.73;;;10.65;;
41043;SDS011;51680;49.806;18.774;2023-06-14T04:43:13;19.95;;;10.77;;
41043;SDS011;51680;49.806;18.774;2023-06-14T04:46:18;17.95;;;10.48;;
41043;SDS011;51680;49.806;18.774;2023-06-14T04:49:20;20.58;;;10.82;;
41043;SDS011;51680;49.806;18.774;2023-06-14T04:52:23;21.08;;;10.70;;
41043;SDS011;51680;49.806;18.774;2023-06-14T04:58:30;21.42;;;11.68;;
41043;SDS011;51680;49.806;18.774;2023-06-14T05:01:33;22.90;;;11.70;;
41043;SDS011;51680;49.806;18.774;2023-06-14T05:04:35;26.73;;;13.25;;
41043;SDS011;51680;49.806;18.774;2023-06-14T05:07:40;23.85;;;13.30;;
41043;SDS011;51680;49.806;18.774;2023-06-14T05:10:42;23.85;;;12.82;;
41043;SDS011;51680;49.806;18.774;2023-06-14T05:13:45;23.95;;;13.45;;
41043;SDS011;51680;49.806;18.774;2023-06-14T05:16:48;23.48;;;13.57;;
41043;SDS011;51680;49.806;18.774;2023-06-14T05:19:50;26.48;;;13.50;;
41043;SDS011;51680;49.806;18.774;2023-06-14T05:22:52;27.67;;;14.25;;
41043;SDS011;51680;49.806;18.774;2023-06-14T05:25:54;24.35;;;14.32;;
41043;SDS011;51680;49.806;18.774;2023-06-14T05:28:58;26.27;;;13.52;;
41043;SDS011;51680;49.806;18.774;2023-06-14T05:32:01;27.85;;;14.57;;
41043;SDS011;51680;49.806;18.774;2023-06-14T05:35:03;31.40;;;15.52;;
41043;SDS011;51680;49.806;18.774;2023-06-14T05:38:06;25.33;;;14.23;;
41043;SDS011;51680;49.806;18.774;2023-06-14T05:41:08;27.27;;;14.07;;
41043;SDS011;51680;49.806;18.774;2023-06-14T05:44:11;28.90;;;15.43;;
41043;SDS011;51680;49.806;18.774;2023-06-14T05:47:13;28.97;;;14.70;;
41043;SDS011;51680;49.806;18.774;2023-06-14T05:50:14;34.78;;;16.73;;
41043;SDS011;51680;49.806;18.774;2023-06-14T05:53:16;26.20;;;14.57;;
41043;SDS011;51680;49.806;18.774;2023-06-14T05:56:18;24.88;;;15.05;;
41043;SDS011;51680;49.806;18.774;2023-06-14T05:59:21;26.50;;;14.38;;
41043;SDS011;51680;49.806;18.774;2023-06-14T06:02:23;25.87;;;15.07;;
41043;SDS011;51680;49.806;18.774;2023-06-14T06:05:24;29.00;;;15.02;;
41043;SDS011;51680;49.806;18.774;2023-06-14T06:08:26;26.50;;;15.77;;
41043;SDS011;51680;49.806;18.774;2023-06-14T06:11:28;27.85;;;15.75;;
41043;SDS011;51680;49.806;18.774;2023-06-14T06:14:31;29.48;;;15.48;;
41043;SDS011;51680;49.806;18.774;2023-06-14T06:17:33;30.50;;;16.95;;
41043;SDS011;51680;49.806;18.774;2023-06-14T06:20:35;34.80;;;16.75;;
41043;SDS011;51680;49.806;18.774;2023-06-14T06:23:37;31.42;;;16.02;;
41043;SDS011;51680;49.806;18.774;2023-06-14T06:26:38;38.85;;;16.70;;
41043;SDS011;51680;49.806;18.774;2023-06-14T06:29:42;28.88;;;15.63;;
41043;SDS011;51680;49.806;18.774;2023-06-14T06:32:45;31.65;;;16.45;;
41043;SDS011;51680;49.806;18.774;2023-06-14T06:35:46;27.60;;;15.93;;
41043;SDS011;51680;49.806;18.774;2023-06-14T06:38:48;29.60;;;16.83;;
41043;SDS011;51680;49.806;18.774;2023-06-14T06:41:50;27.33;;;15.98;;
41043;SDS011;51680;49.806;18.774;2023-06-14T06:45:03;31.10;;;17.67;;
41043;SDS011;51680;49.806;18.774;2023-06-14T06:51:07;30.88;;;18.73;;
41043;SDS011;51680;49.806;18.774;2023-06-14T06:54:08;30.83;;;18.05;;
41043;SDS011;51680;49.806;18.774;2023-06-14T06:57:10;35.80;;;18.65;;
41043;SDS011;51680;49.806;18.774;2023-06-14T07:00:14;32.58;;;18.23;;
41043;SDS011;51680;49.806;18.774;2023-06-14T07:03:16;34.83;;;17.35;;
41043;SDS011;51680;49.806;18.774;2023-06-14T07:06:18;29.88;;;16.70;;
41043;SDS011;51680;49.806;18.774;2023-06-14T07:09:22;29.23;;;16.67;;
41043;SDS011;51680;49.806;18.774;2023-06-14T07:12:24;28.45;;;16.67;;
41043;SDS011;51680;49.806;18.774;2023-06-14T07:15:27;28.63;;;16.30;;
41043;SDS011;51680;49.806;18.774;2023-06-14T07:18:29;28.88;;;15.48;;
41043;SDS011;51680;49.806;18.774;2023-06-14T07:21:31;24.35;;;15.40;;
41043;SDS011;51680;49.806;18.774;2023-06-14T07:24:33;24.88;;;15.25;;
41043;SDS011;51680;49.806;18.774;2023-06-14T07:27:36;26.60;;;15.37;;
41043;SDS011;51680;49.806;18.774;2023-06-14T07:30:39;27.25;;;15.63;;
41043;SDS011;51680;49.806;18.774;2023-06-14T07:33:41;24.58;;;15.57;;
41043;SDS011;51680;49.806;18.774;2023-06-14T07:36:43;27.58;;;15.38;;
41043;SDS011;51680;49.806;18.774;2023-06-14T07:39:45;27.83;;;17.50;;
41043;SDS011;51680;49.806;18.774;2023-06-14T07:42:47;27.33;;;15.13;;
41043;SDS011;51680;49.806;18.774;2023-06-14T07:45:52;19.35;;;13.00;;
41043;SDS011;51680;49.806;18.774;2023-06-14T07:48:53;17.47;;;11.87;;
41043;SDS011;51680;49.806;18.774;2023-06-14T07:51:55;14.30;;;10.02;;
41043;SDS011;51680;49.806;18.774;2023-06-14T07:54:57;16.83;;;10.15;;
41043;SDS011;51680;49.806;18.774;2023-06-14T07:57:59;19.38;;;12.70;;
41043;SDS011;51680;49.806;18.774;2023-06-14T08:01:21;22.40;;;12.95;;
41043;SDS011;51680;49.806;18.774;2023-06-14T08:04:25;22.33;;;11.77;;
41043;SDS011;51680;49.806;18.774;2023-06-14T08:07:27;16.73;;;11.10;;
41043;SDS011;51680;49.806;18.774;2023-06-14T08:10:29;21.30;;;11.70;;
41043;SDS011;51680;49.806;18.774;2023-06-14T08:13:30;14.85;;;9.68;;
41043;SDS011;51680;49.806;18.774;2023-06-14T08:16:33;15.65;;;8.85;;
41043;SDS011;51680;49.806;18.774;2023-06-14T08:19:35;12.37;;;8.53;;
41043;SDS011;51680;49.806;18.774;2023-06-14T08:22:37;14.50;;;8.20;;
41043;SDS011;51680;49.806;18.774;2023-06-14T08:25:39;21.77;;;11.93;;
41043;SDS011;51680;49.806;18.774;2023-06-14T08:28:41;16.83;;;10.48;;
41043;SDS011;51680;49.806;18.774;2023-06-14T08:31:44;15.57;;;10.15;;
41043;SDS011;51680;49.806;18.774;2023-06-14T08:34:46;14.67;;;8.93;;
41043;SDS011;51680;49.806;18.774;2023-06-14T08:37:48;15.18;;;9.90;;
41043;SDS011;51680;49.806;18.774;2023-06-14T08:40:51;11.88;;;7.70;;
41043;SDS011;51680;49.806;18.774;2023-06-14T08:43:54;10.05;;;6.90;;
41043;SDS011;51680;49.806;18.774;2023-06-14T08:46:58;10.88;;;7.10;;
41043;SDS011;51680;49.806;18.774;2023-06-14T08:50:01;11.77;;;7.45;;
41043;SDS011;51680;49.806;18.774;2023-06-14T08:53:04;15.65;;;9.60;;
41043;SDS011;51680;49.806;18.774;2023-06-14T08:56:10;12.57;;;8.77;;
41043;SDS011;51680;49.806;18.774;2023-06-14T08:59:13;12.38;;;7.78;;
41043;SDS011;51680;49.806;18.774;2023-06-14T09:02:18;16.08;;;8.30;;
41043;SDS011;51680;49.806;18.774;2023-06-14T09:05:22;12.73;;;8.07;;
41043;SDS011;51680;49.806;18.774;2023-06-14T09:08:24;11.02;;;7.30;;
41043;SDS011;51680;49.806;18.774;2023-06-14T09:11:26;14.18;;;9.00;;
41043;SDS011;51680;49.806;18.774;2023-06-14T09:14:28;11.70;;;7.45;;
41043;SDS011;51680;49.806;18.774;2023-06-14T09:17:33;18.20;;;5.80;;
41043;SDS011;51680;49.806;18.774;2023-06-14T09:20:36;8.25;;;5.20;;
41043;SDS011;51680;49.806;18.774;2023-06-14T09:23:38;7.47;;;5.05;;
41043;SDS011;51680;49.806;18.774;2023-06-14T09:26:42;9.73;;;5.72;;
41043;SDS011;51680;49.806;18.774;2023-06-14T09:29:43;7.50;;;5.25;;
41043;SDS011;51680;49.806;18.774;2023-06-14T09:32:47;9.45;;;5.13;;
41043;SDS011;51680;49.806;18.774;2023-06-14T09:38:56;7.80;;;5.47;;
41043;SDS011;51680;49.806;18.774;2023-06-14T09:41:59;8.15;;;5.47;;
41043;SDS011;51680;49.806;18.774;2023-06-14T09:45:01;10.07;;;5.90;;
41043;SDS011;51680;49.806;18.774;2023-06-14T09:48:05;8.43;;;5.40;;
41043;SDS011;51680;49.806;18.774;2023-06-14T09:51:08;16.15;;;8.95;;
41043;SDS011;51680;49.806;18.774;2023-06-14T09:54:13;17.50;;;8.20;;
41043;SDS011;51680;49.806;18.774;2023-06-14T09:57:21;16.33;;;8.70;;
41043;SDS011;51680;49.806;18.774;2023-06-14T10:00:25;15.77;;;9.00;;
41043;SDS011;51680;49.806;18.774;2023-06-14T10:03:29;15.43;;;9.07;;
41043;SDS011;51680;49.806;18.774;2023-06-14T10:06:35;15.60;;;8.68;;
41043;SDS011;51680;49.806;18.774;2023-06-14T10:09:38;14.43;;;8.60;;
41043;SDS011;51680;49.806;18.774;2023-06-14T10:12:44;19.95;;;10.50;;
41043;SDS011;51680;49.806;18.774;2023-06-14T10:15:49;16.25;;;10.50;;
41043;SDS011;51680;49.806;18.774;2023-06-14T10:19:02;17.83;;;10.13;;
41043;SDS011;51680;49.806;18.774;2023-06-14T10:22:09;19.30;;;10.75;;
41043;SDS011;51680;49.806;18.774;2023-06-14T10:25:27;19.08;;;11.48;;
41043;SDS011;51680;49.806;18.774;2023-06-14T10:28:31;20.30;;;10.57;;
41043;SDS011;51680;49.806;18.774;2023-06-14T10:34:49;19.30;;;8.45;;
41043;SDS011;51680;49.806;18.774;2023-06-14T10:38:05;15.32;;;8.07;;
41043;SDS011;51680;49.806;18.774;2023-06-14T10:41:08;14.13;;;8.50;;
41043;SDS011;51680;49.806;18.774;2023-06-14T10:47:44;12.35;;;6.90;;
41043;SDS011;51680;49.806;18.774;2023-06-14T10:51:00;12.15;;;6.90;;
41043;SDS011;51680;49.806;18.774;2023-06-14T10:54:02;13.30;;;7.50;;
41043;SDS011;51680;49.806;18.774;2023-06-14T10:57:06;12.68;;;7.88;;
41043;SDS011;51680;49.806;18.774;2023-06-14T11:00:09;12.32;;;7.68;;
41043;SDS011;51680;49.806;18.774;2023-06-14T11:03:23;13.13;;;7.88;;
41043;SDS011;51680;49.806;18.774;2023-06-14T11:06:47;10.90;;;7.38;;
41043;SDS011;51680;49.806;18.774;2023-06-14T11:09:51;14.75;;;8.00;;
41043;SDS011;51680;49.806;18.774;2023-06-14T11:13:07;13.75;;;9.13;;
41043;SDS011;51680;49.806;18.774;2023-06-14T11:16:12;14.30;;;8.00;;
41043;SDS011;51680;49.806;18.774;2023-06-14T11:19:14;13.40;;;7.50;;
41043;SDS011;51680;49.806;18.774;2023-06-14T11:22:19;11.27;;;7.68;;
41043;SDS011;51680;49.806;18.774;2023-06-14T11:25:21;12.05;;;7.95;;
41043;SDS011;51680;49.806;18.774;2023-06-14T11:28:23;11.73;;;6.82;;
41043;SDS011;51680;49.806;18.774;2023-06-14T11:31:25;9.93;;;6.60;;
41043;SDS011;51680;49.806;18.774;2023-06-14T11:34:27;16.30;;;6.88;;
41043;SDS011;51680;49.806;18.774;2023-06-14T11:37:30;10.38;;;6.47;;
41043;SDS011;51680;49.806;18.774;2023-06-14T11:40:34;8.95;;;5.90;;
41043;SDS011;51680;49.806;18.774;2023-06-14T11:43:36;8.55;;;5.93;;
41043;SDS011;51680;49.806;18.774;2023-06-14T11:46:37;9.60;;;7.38;;
41043;SDS011;51680;49.806;18.774;2023-06-14T11:49:39;12.63;;;8.63;;
41043;SDS011;51680;49.806;18.774;2023-06-14T11:52:43;12.32;;;8.45;;
41043;SDS011;51680;49.806;18.774;2023-06-14T11:55:46;11.60;;;7.88;;
41043;SDS011;51680;49.806;18.774;2023-06-14T11:58:47;11.23;;;8.15;;
41043;SDS011;51680;49.806;18.774;2023-06-14T12:01:50;10.07;;;7.03;;
41043;SDS011;51680;49.806;18.774;2023-06-14T12:04:54;10.35;;;7.03;;
41043;SDS011;51680;49.806;18.774;2023-06-14T12:07:59;12.85;;;8.20;;
41043;SDS011;51680;49.806;18.774;2023-06-14T12:11:02;10.90;;;7.10;;
41043;SDS011;51680;49.806;18.774;2023-06-14T12:14:04;7.75;;;5.38;;
41043;SDS011;51680;49.806;18.774;2023-06-14T12:17:07;7.53;;;5.13;;
41043;SDS011;51680;49.806;18.774;2023-06-14T12:20:09;10.48;;;6.18;;
41043;SDS011;51680;49.806;18.774;2023-06-14T12:23:15;14.68;;;7.72;;
41043;SDS011;51680;49.806;18.774;2023-06-14T12:26:19;8.47;;;6.80;;
41043;SDS011;51680;49.806;18.774;2023-06-14T12:29:21;9.82;;;6.93;;
41043;SDS011;51680;49.806;18.774;2023-06-14T12:32:24;10.25;;;5.45;;
41043;SDS011;51680;49.806;18.774;2023-06-14T12:35:25;6.13;;;4.10;;
41043;SDS011;51680;49.806;18.774;2023-06-14T12:38:29;7.97;;;4.97;;
41043;SDS011;51680;49.806;18.774;2023-06-14T12:41:31;8.20;;;5.33;;
41043;SDS011;51680;49.806;18.774;2023-06-14T12:44:33;7.82;;;5.50;;
41043;SDS011;51680;49.806;18.774;2023-06-14T12:47:40;11.00;;;6.80;;
41043;SDS011;51680;49.806;18.774;2023-06-14T12:50:42;8.93;;;6.85;;
41043;SDS011;51680;49.806;18.774;2023-06-14T12:53:45;14.23;;;7.45;;
41043;SDS011;51680;49.806;18.774;2023-06-14T12:56:47;9.60;;;5.70;;
41043;SDS011;51680;49.806;18.774;2023-06-14T12:59:51;7.30;;;5.03;;
41043;SDS011;51680;49.806;18.774;2023-06-14T13:02:53;9.35;;;5.65;;
41043;SDS011;51680;49.806;18.774;2023-06-14T13:05:54;8.85;;;4.30;;
41043;SDS011;51680;49.806;18.774;2023-06-14T13:08:58;5.05;;;3.63;;
41043;SDS011;51680;49.806;18.774;2023-06-14T13:12:01;5.60;;;3.90;;
41043;SDS011;51680;49.806;18.774;2023-06-14T13:15:21;6.47;;;4.80;;
41043;SDS011;51680;49.806;18.774;2023-06-14T13:18:23;8.02;;;4.50;;
41043;SDS011;51680;49.806;18.774;2023-06-14T13:21:25;8.80;;;4.63;;
41043;SDS011;51680;49.806;18.774;2023-06-14T13:24:28;7.05;;;3.53;;
41043;SDS011;51680;49.806;18.774;2023-06-14T13:27:31;5.93;;;4.32;;
41043;SDS011;51680;49.806;18.774;2023-06-14T13:30:33;6.30;;;5.10;;
41043;SDS011;51680;49.806;18.774;2023-06-14T13:33:35;6.53;;;4.88;;
41043;SDS011;51680;49.806;18.774;2023-06-14T13:36:36;8.90;;;4.68;;
41043;SDS011;51680;49.806;18.774;2023-06-14T13:39:40;7.38;;;5.32;;
41043;SDS011;51680;49.806;18.774;2023-06-14T13:42:41;8.60;;;6.40;;
41043;SDS011;51680;49.806;18.774;2023-06-14T13:45:43;8.45;;;5.80;;
41043;SDS011;51680;49.806;18.774;2023-06-14T13:48:45;12.60;;;6.80;;
41043;SDS011;51680;49.806;18.774;2023-06-14T13:51:47;7.93;;;5.40;;
41043;SDS011;51680;49.806;18.774;2023-06-14T13:54:51;8.95;;;5.80;;
41043;SDS011;51680;49.806;18.774;2023-06-14T13:57:52;9.20;;;5.37;;
41043;SDS011;51680;49.806;18.774;2023-06-14T14:00:54;8.88;;;5.20;;
41043;SDS011;51680;49.806;18.774;2023-06-14T14:03:57;8.65;;;5.13;;
41043;SDS011;51680;49.806;18.774;2023-06-14T14:07:00;8.40;;;5.05;;
41043;SDS011;51680;49.806;18.774;2023-06-14T14:10:04;7.00;;;5.13;;
41043;SDS011;51680;49.806;18.774;2023-06-14T14:13:06;7.75;;;5.18;;
41043;SDS011;51680;49.806;18.774;2023-06-14T14:16:08;7.32;;;5.35;;
41043;SDS011;51680;49.806;18.774;2023-06-14T14:19:10;7.25;;;5.13;;
41043;SDS011;51680;49.806;18.774;2023-06-14T14:22:12;9.88;;;5.30;;
41043;SDS011;51680;49.806;18.774;2023-06-14T14:25:15;8.57;;;5.72;;
41043;SDS011;51680;49.806;18.774;2023-06-14T14:28:17;7.32;;;5.10;;
41043;SDS011;51680;49.806;18.774;2023-06-14T14:31:20;8.17;;;6.10;;
41043;SDS011;51680;49.806;18.774;2023-06-14T14:34:24;7.78;;;5.50;;
41043;SDS011;51680;49.806;18.774;2023-06-14T14:37:26;8.93;;;5.53;;
41043;SDS011;51680;49.806;18.774;2023-06-14T14:40:29;8.40;;;5.30;;
41043;SDS011;51680;49.806;18.774;2023-06-14T14:43:30;7.63;;;4.97;;
41043;SDS011;51680;49.806;18.774;2023-06-14T14:46:32;8.50;;;5.65;;
41043;SDS011;51680;49.806;18.774;2023-06-14T14:49:34;8.20;;;5.18;;
41043;SDS011;51680;49.806;18.774;2023-06-14T14:52:36;9.32;;;5.10;;
41043;SDS011;51680;49.806;18.774;2023-06-14T14:55:39;10.90;;;5.55;;
41043;SDS011;51680;49.806;18.774;2023-06-14T14:58:41;7.63;;;5.20;;
41043;SDS011;51680;49.806;18.774;2023-06-14T15:01:43;15.98;;;4.57;;
41043;SDS011;51680;49.806;18.774;2023-06-14T15:04:45;7.28;;;5.13;;
41043;SDS011;51680;49.806;18.774;2023-06-14T15:07:47;6.85;;;4.50;;
41043;SDS011;51680;49.806;18.774;2023-06-14T15:10:50;5.75;;;4.30;;
41043;SDS011;51680;49.806;18.774;2023-06-14T15:13:52;5.88;;;4.72;;
41043;SDS011;51680;49.806;18.774;2023-06-14T15:16:54;6.70;;;4.65;;
41043;SDS011;51680;49.806;18.774;2023-06-14T15:19:56;7.53;;;4.13;;
41043;SDS011;51680;49.806;18.774;2023-06-14T15:22:57;6.30;;;4.57;;
41043;SDS011;51680;49.806;18.774;2023-06-14T15:26:01;7.95;;;4.20;;
41043;SDS011;51680;49.806;18.774;2023-06-14T15:29:03;5.33;;;4.20;;
41043;SDS011;51680;49.806;18.774;2023-06-14T15:32:05;7.57;;;4.28;;
41043;SDS011;51680;49.806;18.774;2023-06-14T15:35:08;5.83;;;4.00;;
41043;SDS011;51680;49.806;18.774;2023-06-14T15:38:09;6.90;;;3.80;;
41043;SDS011;51680;49.806;18.774;2023-06-14T15:41:13;7.30;;;3.92;;
41043;SDS011;51680;49.806;18.774;2023-06-14T15:44:14;6.47;;;4.05;;
41043;SDS011;51680;49.806;18.774;2023-06-14T15:47:16;5.03;;;3.63;;
41043;SDS011;51680;49.806;18.774;2023-06-14T15:50:18;5.53;;;3.63;;
41043;SDS011;51680;49.806;18.774;2023-06-14T15:53:21;4.82;;;3.50;;
41043;SDS011;51680;49.806;18.774;2023-06-14T15:56:24;5.43;;;3.53;;
41043;SDS011;51680;49.806;18.774;2023-06-14T15:59:27;6.00;;;3.00;;
41043;SDS011;51680;49.806;18.774;2023-06-14T16:02:29;9.95;;;3.75;;
41043;SDS011;51680;49.806;18.774;2023-06-14T16:05:31;5.63;;;3.35;;
41043;SDS011;51680;49.806;18.774;2023-06-14T16:08:32;8.23;;;3.60;;
41043;SDS011;51680;49.806;18.774;2023-06-14T16:11:35;6.40;;;3.28;;
41043;SDS011;51680;49.806;18.774;2023-06-14T16:14:37;4.93;;;3.23;;
41043;SDS011;51680;49.806;18.774;2023-06-14T16:17:40;8.13;;;3.05;;
41043;SDS011;51680;49.806;18.774;2023-06-14T16:20:42;4.82;;;2.80;;
41043;SDS011;51680;49.806;18.774;2023-06-14T16:23:44;4.05;;;2.78;;
41043;SDS011;51680;49.806;18.774;2023-06-14T16:26:48;5.32;;;2.50;;
41043;SDS011;51680;49.806;18.774;2023-06-14T16:29:51;3.90;;;2.28;;
41043;SDS011;51680;49.806;18.774;2023-06-14T16:32:53;5.30;;;2.70;;
41043;SDS011;51680;49.806;18.774;2023-06-14T16:35:56;4.90;;;2.85;;
41043;SDS011;51680;49.806;18.774;2023-06-14T16:38:58;5.00;;;2.47;;
41043;SDS011;51680;49.806;18.774;2023-06-14T16:42:02;5.95;;;2.50;;
41043;SDS011;51680;49.806;18.774;2023-06-14T16:45:05;3.85;;;2.13;;
41043;SDS011;51680;49.806;18.774;2023-06-14T16:48:08;6.20;;;3.07;;
41043;SDS011;51680;49.806;18.774;2023-06-14T16:51:10;4.80;;;2.55;;
41043;SDS011;51680;49.806;18.774;2023-06-14T16:54:12;7.35;;;3.00;;
41043;SDS011;51680;49.806;18.774;2023-06-14T16:57:15;6.65;;;2.58;;
41043;SDS011;51680;49.806;18.774;2023-06-14T17:00:17;7.47;;;2.63;;
41043;SDS011;51680;49.806;18.774;2023-06-14T17:03:19;4.73;;;2.50;;
41043;SDS011;51680;49.806;18.774;2023-06-14T17:06:21;5.93;;;2.67;;
41043;SDS011;51680;49.806;18.774;2023-06-14T17:09:24;5.82;;;2.88;;
41043;SDS011;51680;49.806;18.774;2023-06-14T17:12:29;7.40;;;3.92;;
41043;SDS011;51680;49.806;18.774;2023-06-14T17:15:30;5.87;;;4.10;;
41043;SDS011;51680;49.806;18.774;2023-06-14T17:18:33;7.55;;;3.85;;
41043;SDS011;51680;49.806;18.774;2023-06-14T17:21:36;7.03;;;3.60;;
41043;SDS011;51680;49.806;18.774;2023-06-14T17:24:38;7.15;;;3.70;;
41043;SDS011;51680;49.806;18.774;2023-06-14T17:27:41;6.90;;;3.63;;
41043;SDS011;51680;49.806;18.774;2023-06-14T17:30:43;5.63;;;3.70;;
41043;SDS011;51680;49.806;18.774;2023-06-14T17:33:45;9.73;;;4.80;;
41043;SDS011;51680;49.806;18.774;2023-06-14T17:36:47;6.93;;;3.78;;
41043;SDS011;51680;49.806;18.774;2023-06-14T17:39:50;9.50;;;4.45;;
41043;SDS011;51680;49.806;18.774;2023-06-14T17:42:53;7.22;;;4.40;;
41043;SDS011;51680;49.806;18.774;2023-06-14T17:45:55;9.20;;;4.43;;
41043;SDS011;51680;49.806;18.774;2023-06-14T17:48:57;6.63;;;3.50;;
41043;SDS011;51680;49.806;18.774;2023-06-14T17:51:59;8.02;;;3.20;;
41043;SDS011;51680;49.806;18.774;2023-06-14T17:55:01;5.05;;;3.08;;
41043;SDS011;51680;49.806;18.774;2023-06-14T17:58:04;6.45;;;3.80;;
41043;SDS011;51680;49.806;18.774;2023-06-14T18:01:06;6.20;;;3.08;;
41043;SDS011;51680;49.806;18.774;2023-06-14T18:04:08;8.07;;;3.20;;
41043;SDS011;51680;49.806;18.774;2023-06-14T18:07:10;6.15;;;3.75;;
41043;SDS011;51680;49.806;18.774;2023-06-14T18:10:12;8.77;;;3.88;;
41043;SDS011;51680;49.806;18.774;2023-06-14T18:13:17;10.60;;;5.00;;
41043;SDS011;51680;49.806;18.774;2023-06-14T18:16:19;9.88;;;4.45;;